Time;durP1;ratioP1;P1;durP2;ratioP2;P2;SDS_P1;SDS_P2;PMS_P1;PMS_P2;Temp;Humidity;BMP_temperature;BMP_pressure;BME280_temperature;BME280_humidity;BME280_pressure;Samples;Min_cycle;Max_cycle;Signal;HPM_P1;HPM_P2
2022/09/29 00:00:34;;;;;;;;;;;;;;;10.63;100.00;97479.96;104914;1274;74759;-71
2022/09/29 00:03:21;;;;;;;;;;;;;;;10.62;100.00;97490.54;104918;1273;61312;-69
2022/09/29 00:05:48;;;;;;;;;;;;;;;10.62;100.00;97494.23;104895;1274;61855;-71
2022/09/29 00:08:16;;;;;;;;;;;;;;;10.61;100.00;97500.35;105016;1274;75287;-70
2022/09/29 00:10:43;;;;;;;;;;;;;;;10.59;100.00;97504.11;104919;1273;70409;-70
2022/09/29 00:13:09;;;;;;;;;;;;;;;10.57;100.00;97504.98;104919;1273;72971;-70
2022/09/29 00:15:36;;;;;;;;;;;;;;;10.55;100.00;97512.04;104879;1273;61270;-70
2022/09/29 00:18:03;;;;;;;;;;;;;;;10.55;100.00;97508.90;104908;1274;61261;-70
2022/09/29 00:20:30;;;;;;;;;;;;;;;10.54;100.00;97510.73;104944;1274;74400;-70
2022/09/29 00:22:56;;;;;;;;;;;;;;;10.53;100.00;97511.89;104943;1273;70183;-70
2022/09/29 00:25:23;;;;;;;;;;;;;;;10.52;100.00;97513.94;104914;1273;61395;-70
2022/09/29 00:27:49;;;;;;;;;;;;;;;10.51;100.00;97518.09;104943;1273;61356;-70
2022/09/29 00:30:16;;;;;;;;;;;;;;;10.49;100.00;97521.64;104939;1273;61126;-70
2022/09/29 00:32:43;;;;;;;;;;;;;;;10.47;100.00;97517.80;104927;1273;61391;-71
2022/09/29 00:35:09;;;;;;;;;;;;;;;10.43;100.00;97519.90;104936;1274;61332;-70
2022/09/29 00:37:36;;;;;;;;;;;;;;;10.40;100.00;97515.25;104927;1273;73586;-70
2022/09/29 00:40:03;;;;;;;;;;;;;;;10.37;100.00;97510.52;104883;1274;61302;-70
2022/09/29 00:42:31;;;;;;;;;;;;;;;10.32;100.00;97512.34;104917;1274;61160;-71
2022/09/29 00:45:19;;;;;;;;;;;;;;;10.29;100.00;97511.39;104945;1274;76319;-71
2022/09/29 00:47:48;;;;;;;;;;;;;;;10.26;100.00;97509.70;104947;1273;70194;-70
2022/09/29 00:50:18;;;;;;;;;;;;;;;10.24;100.00;97513.08;104910;1273;73380;-70
2022/09/29 00:52:48;;;;;;;;;;;;;;;10.21;100.00;97516.91;104930;1273;61318;-70
2022/09/29 00:55:16;;;;;;;;;;;;;;;10.19;100.00;97520.65;104952;1273;61678;-71
2022/09/29 00:57:50;;;;;;;;;;;;;;;10.17;100.00;97528.40;104953;1273;75374;-71
2022/09/29 01:00:17;;;;;;;;;;;;;;;10.15;100.00;97536.73;104927;1273;69485;-71
2022/09/29 01:02:54;;;;;;;;;;;;;;;10.14;100.00;97534.23;104927;1273;73468;-71
2022/09/29 01:05:26;;;;;;;;;;;;;;;10.10;100.00;97534.33;104911;1272;61265;-70
2022/09/29 01:07:53;;;;;;;;;;;;;;;10.09;100.00;97543.29;104959;1273;61823;-69
2022/09/29 01:10:20;;;;;;;;;;;;;;;10.08;100.00;97547.32;104943;1273;61273;-70
2022/09/29 01:12:47;;;;;;;;;;;;;;;10.06;100.00;97560.98;104937;1273;69418;-70
2022/09/29 01:15:15;;;;;;;;;;;;;;;10.04;100.00;97567.20;104921;1273;73916;-70
2022/09/29 01:17:42;;;;;;;;;;;;;;;10.00;100.00;97562.02;104929;1273;61427;-71
2022/09/29 01:20:15;;;;;;;;;;;;;;;9.97;100.00;97557.16;104935;1272;61749;-70
2022/09/29 01:23:00;;;;;;;;;;;;;;;9.94;100.00;97554.23;105065;1273;74346;-70
2022/09/29 01:25:52;;;;;;;;;;;;;;;9.91;100.00;97558.20;104912;1272;70315;-70
2022/09/29 01:28:25;;;;;;;;;;;;;;;9.87;100.00;97551.98;104930;1273;73821;-69
2022/09/29 01:30:51;;;;;;;;;;;;;;;9.85;100.00;97547.67;104926;1273;61301;-70
2022/09/29 01:33:33;;;;;;;;;;;;;;;9.84;100.00;97543.16;104943;1273;61414;-70
2022/09/29 01:36:03;;;;;;;;;;;;;;;9.85;100.00;97544.91;104893;1273;75404;-70
2022/09/29 01:38:32;;;;;;;;;;;;;;;9.86;100.00;97546.95;104933;1273;70093;-70
2022/09/29 01:41:14;;;;;;;;;;;;;;;9.85;100.00;97550.25;104914;1273;74229;-71
2022/09/29 01:43:46;;;;;;;;;;;;;;;9.84;100.00;97547.66;104921;1272;61296;-70
2022/09/29 01:46:28;;;;;;;;;;;;;;;9.84;100.00;97545.31;104940;1273;61316;-71
2022/09/29 01:48:55;;;;;;;;;;;;;;;9.85;100.00;97549.70;104909;1273;75146;-71
2022/09/29 01:51:31;;;;;;;;;;;;;;;9.82;100.00;97549.55;104956;1273;69287;-70
2022/09/29 01:54:03;;;;;;;;;;;;;;;9.80;100.00;97545.34;104928;1273;74536;-71
2022/09/29 01:56:34;;;;;;;;;;;;;;;9.78;100.00;97548.67;104893;1273;61626;-71
2022/09/29 01:59:29;;;;;;;;;;;;;;;9.76;100.00;97545.46;104908;1273;61494;-71
2022/09/29 02:01:59;;;;;;;;;;;;;;;9.74;100.00;97544.31;104659;1277;76083;-70
2022/09/29 02:04:31;;;;;;;;;;;;;;;9.72;100.00;97544.29;104756;1277;69007;-70
2022/09/29 02:07:12;;;;;;;;;;;;;;;9.69;100.00;97543.23;104839;1277;73798;-70
2022/09/29 02:09:41;;;;;;;;;;;;;;;9.68;100.00;97546.54;104674;1277;61505;-70
2022/09/29 02:12:09;;;;;;;;;;;;;;;9.68;100.00;97543.89;104739;1277;61673;-70
2022/09/29 02:14:38;;;;;;;;;;;;;;;9.67;100.00;97548.75;104691;1277;75105;-71
2022/09/29 02:17:18;;;;;;;;;;;;;;;9.67;100.00;97554.40;104671;1277;69130;-70
2022/09/29 02:19:46;;;;;;;;;;;;;;;9.67;100.00;97551.63;104666;1277;74384;-70
2022/09/29 02:22:13;;;;;;;;;;;;;;;9.66;100.00;97556.11;104723;1277;61356;-71
2022/09/29 02:24:40;;;;;;;;;;;;;;;9.66;100.00;97556.65;104669;1277;61566;-70
2022/09/29 02:27:08;;;;;;;;;;;;;;;9.67;100.00;97553.75;104455;1278;76578;-70
2022/09/29 02:29:35;;;;;;;;;;;;;;;9.68;100.00;97557.19;104477;1277;69239;-70
2022/09/29 02:32:03;;;;;;;;;;;;;;;9.68;100.00;97557.16;104751;1277;73187;-71
2022/09/29 02:34:31;;;;;;;;;;;;;;;9.67;100.00;97555.63;104731;1277;61327;-70
2022/09/29 02:37:19;;;;;;;;;;;;;;;9.67;100.00;97560.67;104682;1277;61576;-70
2022/09/29 02:40:01;;;;;;;;;;;;;;;9.65;100.00;97555.09;104853;1272;75792;-70
2022/09/29 02:42:46;;;;;;;;;;;;;;;9.66;100.00;97559.14;104914;1273;70440;-69
2022/09/29 02:45:16;;;;;;;;;;;;;;;9.67;100.00;97560.99;104936;1273;74133;-69
2022/09/29 02:47:48;;;;;;;;;;;;;;;9.67;100.00;97561.17;104929;1273;61168;-70
2022/09/29 02:50:21;;;;;;;;;;;;;;;9.67;100.00;97554.56;104972;1273;61272;-71
2022/09/29 02:53:06;;;;;;;;;;;;;;;9.68;100.00;97552.38;104910;1273;75393;-70
2022/09/29 02:55:56;;;;;;;;;;;;;;;9.69;100.00;97543.29;104939;1273;69648;-70
2022/09/29 02:58:29;;;;;;;;;;;;;;;9.71;100.00;97537.29;104971;1273;74152;-70
2022/09/29 03:00:57;;;;;;;;;;;;;;;9.72;100.00;97531.15;104919;1273;61326;-71
2022/09/29 03:03:24;;;;;;;;;;;;;;;9.72;100.00;97525.80;105160;1273;61185;-70
2022/09/29 03:05:50;;;;;;;;;;;;;;;9.72;100.00;97521.05;104935;1273;76199;-70
2022/09/29 03:08:17;;;;;;;;;;;;;;;9.72;100.00;97523.20;104913;1272;70677;-70
2022/09/29 03:10:43;;;;;;;;;;;;;;;9.70;100.00;97523.34;104924;1273;61405;-70
2022/09/29 03:13:10;;;;;;;;;;;;;;;9.68;100.00;97521.67;104928;1272;61408;-67
2022/09/29 03:15:36;;;;;;;;;;;;;;;9.67;100.00;97520.74;104839;1273;61355;-72
2022/09/29 03:18:03;;;;;;;;;;;;;;;9.67;100.00;97521.84;104906;1273;61376;-71
2022/09/29 03:20:30;;;;;;;;;;;;;;;9.65;100.00;97525.11;104911;1273;69008;-71
2022/09/29 03:22:57;;;;;;;;;;;;;;;9.64;100.00;97531.27;104930;1273;73559;-71
2022/09/29 03:25:24;;;;;;;;;;;;;;;9.63;100.00;97542.34;104980;1272;61182;-71
2022/09/29 03:27:51;;;;;;;;;;;;;;;9.64;100.00;97548.90;104913;1273;61606;-71
2022/09/29 03:30:17;;;;;;;;;;;;;;;9.64;100.00;97546.91;104923;1273;75316;-70
2022/09/29 03:32:44;;;;;;;;;;;;;;;9.64;100.00;97541.93;104922;1273;61320;-70
2022/09/29 03:35:11;;;;;;;;;;;;;;;9.65;100.00;97543.44;104930;1273;74445;-70
2022/09/29 03:37:37;;;;;;;;;;;;;;;9.65;100.00;97545.37;104909;1273;61411;-70
2022/09/29 03:40:04;;;;;;;;;;;;;;;9.66;100.00;97543.48;104898;1273;61696;-71
2022/09/29 03:42:32;;;;;;;;;;;;;;;9.67;100.00;97542.56;104975;1273;75085;-71
2022/09/29 03:44:58;;;;;;;;;;;;;;;9.67;100.00;97543.42;104907;1273;61215;-70
2022/09/29 03:47:25;;;;;;;;;;;;;;;9.66;100.00;97540.88;104887;1273;61215;-70
2022/09/29 03:49:51;;;;;;;;;;;;;;;9.64;100.00;97540.02;104912;1273;61283;-71
2022/09/29 03:52:18;;;;;;;;;;;;;;;9.62;100.00;97544.04;104899;1273;61374;-70
2022/09/29 03:54:45;;;;;;;;;;;;;;;9.61;100.00;97553.38;105008;1272;74827;-70
2022/09/29 03:57:11;;;;;;;;;;;;;;;9.58;100.00;97552.00;104893;1273;61320;-70
2022/09/29 03:59:38;;;;;;;;;;;;;;;9.56;100.00;97550.79;104904;1272;61384;-72
2022/09/29 04:02:05;;;;;;;;;;;;;;;9.55;100.00;97542.73;104892;1273;61485;-71
2022/09/29 04:04:32;;;;;;;;;;;;;;;9.56;100.00;97537.47;104917;1273;61433;-70
2022/09/29 04:06:58;;;;;;;;;;;;;;;9.58;100.00;97542.81;104907;1273;61312;-71
2022/09/29 04:09:25;;;;;;;;;;;;;;;9.57;100.00;97542.55;104909;1273;61391;-70
2022/09/29 04:11:51;;;;;;;;;;;;;;;9.56;100.00;97546.67;104897;1273;61339;-70
2022/09/29 04:14:18;;;;;;;;;;;;;;;9.55;100.00;97550.66;104914;1272;61290;-70
2022/09/29 04:16:44;;;;;;;;;;;;;;;9.55;100.00;97552.98;104956;1273;61218;-71
2022/09/29 04:19:11;;;;;;;;;;;;;;;9.54;100.00;97555.95;104895;1273;61309;-70
2022/09/29 04:21:38;;;;;;;;;;;;;;;9.53;100.00;97549.65;104941;1272;69183;-71
2022/09/29 04:24:04;;;;;;;;;;;;;;;9.53;100.00;97563.45;104912;1273;61348;-71
2022/09/29 04:26:31;;;;;;;;;;;;;;;9.52;100.00;97569.90;104899;1273;61423;-70
2022/09/29 04:28:57;;;;;;;;;;;;;;;9.52;100.00;97575.95;104898;1273;61338;-70
2022/09/29 04:31:24;;;;;;;;;;;;;;;9.52;100.00;97585.13;104921;1273;61300;-71
2022/09/29 04:33:51;;;;;;;;;;;;;;;9.52;100.00;97587.68;104919;1272;61291;-70
2022/09/29 04:36:17;;;;;;;;;;;;;;;9.53;100.00;97588.27;104936;1273;74859;-71
2022/09/29 04:38:44;;;;;;;;;;;;;;;9.54;100.00;97582.55;104989;1272;61310;-70
2022/09/29 04:41:10;;;;;;;;;;;;;;;9.55;100.00;97578.38;104941;1273;61185;-71
2022/09/29 04:43:37;;;;;;;;;;;;;;;9.56;100.00;97580.27;104912;1273;61361;-71
2022/09/29 04:46:04;;;;;;;;;;;;;;;9.55;100.00;97594.28;104856;1272;69547;-69
2022/09/29 04:48:31;;;;;;;;;;;;;;;9.55;100.00;97597.17;104918;1272;73886;-70
2022/09/29 04:50:58;;;;;;;;;;;;;;;9.53;100.00;97600.31;104937;1273;61380;-70
2022/09/29 04:53:24;;;;;;;;;;;;;;;9.52;100.00;97600.56;104920;1273;61296;-70
2022/09/29 04:55:51;;;;;;;;;;;;;;;9.52;100.00;97598.29;104915;1272;75267;-71
2022/09/29 04:58:18;;;;;;;;;;;;;;;9.53;100.00;97595.91;104956;1273;70301;-71
2022/09/29 05:00:45;;;;;;;;;;;;;;;9.54;100.00;97598.16;104983;1272;72363;-71
2022/09/29 05:03:11;;;;;;;;;;;;;;;9.53;100.00;97602.79;104932;1273;61388;-70
2022/09/29 05:05:38;;;;;;;;;;;;;;;9.53;100.00;97601.42;104918;1272;61271;-70
2022/09/29 05:08:05;;;;;;;;;;;;;;;9.50;100.00;97601.45;104905;1273;61365;-70
2022/09/29 05:10:32;;;;;;;;;;;;;;;9.49;100.00;97609.17;105038;1273;69268;-71
2022/09/29 05:12:59;;;;;;;;;;;;;;;9.48;100.00;97608.20;105113;1272;72906;-70
2022/09/29 05:15:26;;;;;;;;;;;;;;;9.48;100.00;97608.41;104940;1272;61408;-70
2022/09/29 05:17:52;;;;;;;;;;;;;;;9.47;100.00;97607.05;104942;1272;61240;-70
2022/09/29 05:20:19;;;;;;;;;;;;;;;9.48;100.00;97611.58;104917;1273;75114;-70
2022/09/29 05:22:46;;;;;;;;;;;;;;;9.49;100.00;97607.79;104923;1273;69403;-70
2022/09/29 05:25:12;;;;;;;;;;;;;;;9.51;100.00;97602.48;104906;1272;61328;-70
2022/09/29 05:27:39;;;;;;;;;;;;;;;9.53;100.00;97596.96;104915;1273;61376;-70
2022/09/29 05:30:06;;;;;;;;;;;;;;;9.55;100.00;97599.05;104921;1272;61314;-71
2022/09/29 05:32:33;;;;;;;;;;;;;;;9.58;100.00;97603.59;104875;1273;75172;-71
2022/09/29 05:34:59;;;;;;;;;;;;;;;9.60;100.00;97605.01;104921;1272;61163;-70
2022/09/29 05:37:26;;;;;;;;;;;;;;;9.62;100.00;97598.27;104877;1273;73718;-71
2022/09/29 05:39:52;;;;;;;;;;;;;;;9.64;100.00;97598.99;104894;1273;61414;-70
2022/09/29 05:42:19;;;;;;;;;;;;;;;9.66;100.00;97601.46;104958;1273;61378;-71
2022/09/29 05:44:45;;;;;;;;;;;;;;;9.70;100.00;97605.45;104958;1273;76741;-71
2022/09/29 05:47:12;;;;;;;;;;;;;;;9.74;100.00;97603.70;104900;1272;61302;-70
2022/09/29 05:49:38;;;;;;;;;;;;;;;9.77;100.00;97602.69;104897;1272;61414;-71
2022/09/29 05:52:05;;;;;;;;;;;;;;;9.80;100.00;97601.40;104898;1273;61397;-71
2022/09/29 05:54:32;;;;;;;;;;;;;;;9.82;100.00;97599.98;104920;1273;61530;-70
2022/09/29 05:56:59;;;;;;;;;;;;;;;9.84;100.00;97606.71;104949;1272;61405;-71
2022/09/29 05:59:25;;;;;;;;;;;;;;;9.85;100.00;97608.92;104930;1272;61283;-71
2022/09/29 06:01:52;;;;;;;;;;;;;;;9.88;100.00;97605.81;104923;1272;73446;-70
2022/09/29 06:04:18;;;;;;;;;;;;;;;9.93;100.00;97605.23;104925;1273;61429;-70
2022/09/29 06:06:47;;;;;;;;;;;;;;;9.99;100.00;97598.55;104910;1272;61793;-70
2022/09/29 06:09:13;;;;;;;;;;;;;;;10.06;100.00;97603.05;104899;1273;76369;-70
2022/09/29 06:11:40;;;;;;;;;;;;;;;10.14;100.00;97601.83;105019;1272;70369;-70
2022/09/29 06:14:07;;;;;;;;;;;;;;;10.22;100.00;97604.86;104927;1272;73324;-70
2022/09/29 06:16:33;;;;;;;;;;;;;;;10.30;100.00;97604.48;104891;1272;61318;-70
2022/09/29 06:19:01;;;;;;;;;;;;;;;10.38;100.00;97605.98;104941;1272;61372;-70
2022/09/29 06:21:28;;;;;;;;;;;;;;;10.42;100.00;97604.56;104956;1273;76292;-70
2022/09/29 06:23:55;;;;;;;;;;;;;;;10.43;100.00;97608.49;104915;1273;69578;-71
2022/09/29 06:26:23;;;;;;;;;;;;;;;10.45;100.00;97606.00;104998;1273;73326;-70
2022/09/29 06:28:50;;;;;;;;;;;;;;;10.48;100.00;97607.02;104915;1273;61292;-70
2022/09/29 06:31:17;;;;;;;;;;;;;;;10.52;100.00;97609.66;104946;1273;61278;-70
2022/09/29 06:33:45;;;;;;;;;;;;;;;10.54;100.00;97604.16;104815;1272;204956;-71
2022/09/29 06:38:57;;;;;;;;;;;;;;;10.54;100.00;97607.69;104897;1273;73451;-71
2022/09/29 06:41:23;;;;;;;;;;;;;;;10.53;100.00;97603.38;104909;1272;61344;-69
2022/09/29 06:43:49;;;;;;;;;;;;;;;10.52;100.00;97601.67;104817;1272;61376;-70
2022/09/29 06:46:16;;;;;;;;;;;;;;;10.51;100.00;97605.15;104873;1273;61325;-70
2022/09/29 06:48:43;;;;;;;;;;;;;;;10.53;100.00;97612.00;104889;1273;61563;-70
2022/09/29 06:51:10;;;;;;;;;;;;;;;10.56;100.00;97611.27;104889;1273;73340;-71
2022/09/29 06:53:36;;;;;;;;;;;;;;;10.59;100.00;97608.93;104818;1273;61442;-70
2022/09/29 06:56:03;;;;;;;;;;;;;;;10.63;100.00;97610.29;104971;1272;61296;-70
2022/09/29 06:58:29;;;;;;;;;;;;;;;10.70;100.00;97614.65;104889;1272;61375;-71
2022/09/29 07:00:59;;;;;;;;;;;;;;;10.80;100.00;97616.42;104922;1273;61382;-70
2022/09/29 07:03:26;;;;;;;;;;;;;;;10.93;100.00;97618.44;104884;1273;73375;-71
2022/09/29 07:05:53;;;;;;;;;;;;;;;11.09;100.00;97620.52;104868;1273;61376;-71
2022/09/29 07:08:19;;;;;;;;;;;;;;;11.26;100.00;97623.84;104947;1272;61283;-71
2022/09/29 07:10:47;;;;;;;;;;;;;;;11.42;100.00;97631.91;104930;1273;61469;-71
2022/09/29 07:13:13;;;;;;;;;;;;;;;11.55;100.00;97632.29;104559;1273;67482;-70
2022/09/29 07:15:40;;;;;;;;;;;;;;;11.69;100.00;97629.61;104958;1273;61186;-70
2022/09/29 07:18:06;;;;;;;;;;;;;;;11.79;100.00;97627.56;104950;1273;61265;-70
2022/09/29 07:20:34;;;;;;;;;;;;;;;11.86;100.00;97630.13;104936;1272;61282;-70
2022/09/29 07:23:01;;;;;;;;;;;;;;;11.87;100.00;97627.80;104924;1272;75202;-70
2022/09/29 07:25:28;;;;;;;;;;;;;;;11.82;100.00;97626.40;104954;1273;70469;-71
2022/09/29 07:27:54;;;;;;;;;;;;;;;11.75;100.00;97621.41;104937;1272;61366;-70
2022/09/29 07:30:21;;;;;;;;;;;;;;;11.65;100.00;97618.23;104958;1273;61290;-70
2022/09/29 07:32:47;;;;;;;;;;;;;;;11.57;100.00;97620.70;104967;1273;61167;-71
2022/09/29 07:35:14;;;;;;;;;;;;;;;11.54;100.00;97623.91;105004;1273;61280;-71
2022/09/29 07:37:40;;;;;;;;;;;;;;;11.52;100.00;97626.91;104947;1273;61255;-70
2022/09/29 07:40:07;;;;;;;;;;;;;;;11.53;100.00;97627.33;104944;1273;73206;-70
2022/09/29 07:42:34;;;;;;;;;;;;;;;11.58;100.00;97627.72;104939;1273;61493;-70
2022/09/29 07:45:00;;;;;;;;;;;;;;;11.69;100.00;97629.41;104956;1273;61404;-71
2022/09/29 07:47:28;;;;;;;;;;;;;;;11.80;100.00;97631.61;104913;1273;72512;-70
2022/09/29 07:49:54;;;;;;;;;;;;;;;11.92;100.00;97638.84;104954;1273;70377;-72
2022/09/29 07:52:20;;;;;;;;;;;;;;;12.03;100.00;97644.55;104957;1273;61313;-71
2022/09/29 07:54:47;;;;;;;;;;;;;;;12.14;100.00;97649.33;104968;1273;61361;-70
2022/09/29 07:57:13;;;;;;;;;;;;;;;12.24;100.00;97655.94;104968;1273;61307;-71
2022/09/29 07:59:40;;;;;;;;;;;;;;;12.38;100.00;97661.71;104973;1272;61354;-71
2022/09/29 08:02:08;;;;;;;;;;;;;;;12.45;100.00;97658.73;104986;1273;61370;-71
2022/09/29 08:04:34;;;;;;;;;;;;;;;12.49;100.00;97660.91;104956;1272;73363;-71
2022/09/29 08:07:01;;;;;;;;;;;;;;;12.56;100.00;97664.53;104943;1272;61184;-71
2022/09/29 08:09:27;;;;;;;;;;;;;;;12.65;100.00;97666.86;104956;1272;61402;-70
2022/09/29 08:11:53;;;;;;;;;;;;;;;12.79;100.00;97667.05;104970;1273;61373;-70
2022/09/29 08:14:21;;;;;;;;;;;;;;;12.89;100.00;97669.25;104961;1272;61398;-72
2022/09/29 08:16:47;;;;;;;;;;;;;;;13.00;100.00;97667.48;104927;1272;74436;-71
2022/09/29 08:19:14;;;;;;;;;;;;;;;13.11;100.00;97661.43;104968;1273;61316;-71
2022/09/29 08:21:41;;;;;;;;;;;;;;;13.18;100.00;97664.48;104915;1272;61905;-70
2022/09/29 08:24:09;;;;;;;;;;;;;;;13.25;100.00;97672.15;104940;1273;61265;-70
2022/09/29 08:26:36;;;;;;;;;;;;;;;13.31;100.00;97673.20;105045;1273;69123;-70
2022/09/29 08:29:04;;;;;;;;;;;;;;;13.35;100.00;97671.90;105061;1272;72775;-71
2022/09/29 08:31:30;;;;;;;;;;;;;;;13.42;100.00;97675.71;104914;1272;61444;-71
2022/09/29 08:34:00;;;;;;;;;;;;;;;13.51;100.00;97678.23;104941;1273;61288;-71
2022/09/29 08:36:26;;;;;;;;;;;;;;;13.65;100.00;97677.63;104983;1272;76692;-70
2022/09/29 08:38:54;;;;;;;;;;;;;;;13.78;100.00;97680.30;104968;1273;61270;-69
2022/09/29 08:41:27;;;;;;;;;;;;;;;13.88;100.00;97680.22;104943;1273;74149;-70
2022/09/29 08:44:00;;;;;;;;;;;;;;;13.98;100.00;97679.83;105060;1272;61299;-70
2022/09/29 08:46:38;;;;;;;;;;;;;;;14.18;100.00;97682.98;104983;1273;61216;-70
2022/09/29 08:49:25;;;;;;;;;;;;;;;14.45;100.00;97683.44;104976;1273;76265;-70
2022/09/29 08:51:54;;;;;;;;;;;;;;;14.63;100.00;97683.24;104957;1272;70771;-70
2022/09/29 08:54:21;;;;;;;;;;;;;;;14.69;100.00;97679.52;104933;1273;73172;-71
2022/09/29 08:56:47;;;;;;;;;;;;;;;14.70;100.00;97681.00;104946;1272;61302;-71
2022/09/29 08:59:14;;;;;;;;;;;;;;;14.73;100.00;97681.98;104961;1272;61347;-71
2022/09/29 09:01:49;;;;;;;;;;;;;;;14.76;100.00;97686.52;105016;1273;73805;-71
2022/09/29 09:04:21;;;;;;;;;;;;;;;14.79;100.00;97690.63;104954;1273;69556;-71
2022/09/29 09:06:51;;;;;;;;;;;;;;;14.87;100.00;97692.45;104930;1273;74454;-69
2022/09/29 09:09:27;;;;;;;;;;;;;;;14.84;100.00;97691.75;104934;1273;61293;-70
2022/09/29 09:11:54;;;;;;;;;;;;;;;14.75;100.00;97691.05;104925;1272;61543;-70
2022/09/29 09:14:21;;;;;;;;;;;;;;;14.77;100.00;97696.90;104984;1272;75317;-71
2022/09/29 09:17:04;;;;;;;;;;;;;;;14.89;100.00;97700.45;105007;1273;69919;-70
2022/09/29 09:19:31;;;;;;;;;;;;;;;15.01;100.00;97702.21;104987;1273;73802;-71
2022/09/29 09:22:18;;;;;;;;;;;;;;;15.05;100.00;97710.64;104981;1272;61388;-72
2022/09/29 09:24:48;;;;;;;;;;;;;;;15.02;100.00;97717.21;104976;1273;62540;-71
2022/09/29 09:27:18;;;;;;;;;;;;;;;14.98;100.00;97716.36;104979;1272;76321;-71
2022/09/29 09:29:46;;;;;;;;;;;;;;;14.98;100.00;97721.36;104983;1273;70387;-70
2022/09/29 09:32:33;;;;;;;;;;;;;;;15.01;100.00;97718.14;104993;1270;74035;-71
2022/09/29 09:35:03;;;;;;;;;;;;;;;15.07;100.00;97719.10;105003;1273;61368;-71
2022/09/29 09:37:38;;;;;;;;;;;;;;;15.03;100.00;97717.30;105111;1273;61266;-72
2022/09/29 09:40:08;;;;;;;;;;;;;;;14.94;100.00;97714.46;104955;1272;76408;-71
2022/09/29 09:42:38;;;;;;;;;;;;;;;14.88;100.00;97715.21;105007;1273;69231;-71
2022/09/29 09:45:10;;;;;;;;;;;;;;;14.81;100.00;97718.20;105080;1273;73350;-70
2022/09/29 09:47:39;;;;;;;;;;;;;;;14.80;100.00;97720.94;104944;1273;61369;-71
2022/09/29 09:50:14;;;;;;;;;;;;;;;14.90;100.00;97713.64;104961;1273;61174;-71
2022/09/29 09:52:50;;;;;;;;;;;;;;;15.06;100.00;97717.14;104983;1273;75376;-70
2022/09/29 09:55:23;;;;;;;;;;;;;;;15.16;100.00;97717.66;105084;1272;69220;-70
2022/09/29 09:57:59;;;;;;;;;;;;;;;15.23;100.00;97716.73;105028;1273;73496;-71
2022/09/29 10:00:26;;;;;;;;;;;;;;;15.23;100.00;97719.25;104954;1272;61514;-71
2022/09/29 10:02:54;;;;;;;;;;;;;;;15.28;100.00;97720.35;104977;1272;61780;-70
2022/09/29 10:05:50;;;;;;;;;;;;;;;15.34;100.00;97719.02;104916;1273;76502;-71
2022/09/29 10:08:24;;;;;;;;;;;;;;;15.36;100.00;97722.44;104643;1278;69413;-70
2022/09/29 10:10:52;;;;;;;;;;;;;;;15.41;100.00;97728.66;104632;1278;73622;-70
2022/09/29 10:13:18;;;;;;;;;;;;;;;15.50;100.00;97726.94;104633;1278;61379;-71
2022/09/29 10:15:51;;;;;;;;;;;;;;;15.57;100.00;97729.94;104622;1277;61320;-71
2022/09/29 10:18:18;;;;;;;;;;;;;;;15.69;100.00;97727.55;104594;1278;76288;-71
2022/09/29 10:20:45;;;;;;;;;;;;;;;15.81;100.00;97726.30;104671;1278;68940;-74
2022/09/29 10:23:38;;;;;;;;;;;;;;;15.92;100.00;97721.84;104633;1279;74238;-72
2022/09/29 10:26:07;;;;;;;;;;;;;;;15.98;100.00;97722.14;104271;1283;61295;-74
2022/09/29 10:28:42;;;;;;;;;;;;;;;16.08;100.00;97724.46;104315;1283;61882;-77
2022/09/29 10:31:29;;;;;;;;;;;;;;;16.20;100.00;97720.39;104266;1282;74800;-74
2022/09/29 10:34:16;;;;;;;;;;;;;;;16.24;100.00;97723.22;104050;1283;67800;-74
2022/09/29 10:37:06;;;;;;;;;;;;;;;16.25;100.00;97723.27;104272;1283;73515;-74
2022/09/29 10:39:32;;;;;;;;;;;;;;;16.34;100.00;97721.04;103576;1289;61334;-74
2022/09/29 10:41:59;;;;;;;;;;;;;;;16.42;100.00;97721.90;103741;1289;61335;-74
2022/09/29 10:44:30;;;;;;;;;;;;;;;16.60;100.00;97729.56;103783;1288;61380;-74
2022/09/29 10:46:56;;;;;;;;;;;;;;;16.71;100.00;97728.86;103943;1284;69756;-73
2022/09/29 10:49:26;;;;;;;;;;;;;;;16.79;100.00;97730.21;103991;1285;73037;-73
2022/09/29 10:51:59;;;;;;;;;;;;;;;16.86;100.00;97733.83;103982;1285;61373;-74
2022/09/29 10:54:27;;;;;;;;;;;;;;;16.96;100.00;97739.61;103960;1285;61448;-74
2022/09/29 10:56:55;;;;;;;;;;;;;;;17.09;100.00;97734.27;103958;1285;76592;-74
2022/09/29 10:59:23;;;;;;;;;;;;;;;17.19;100.00;97740.05;103833;1285;69335;-74
2022/09/29 11:01:58;;;;;;;;;;;;;;;17.19;100.00;97733.59;103943;1285;74447;-74
2022/09/29 11:04:31;;;;;;;;;;;;;;;17.21;100.00;97734.75;104047;1282;61326;-74
2022/09/29 11:07:05;;;;;;;;;;;;;;;17.21;100.00;97737.61;104506;1280;61708;-74
2022/09/29 11:09:37;;;;;;;;;;;;;;;17.24;100.00;97738.21;104424;1281;74946;-75
2022/09/29 11:12:05;;;;;;;;;;;;;;;17.32;100.00;97740.42;104437;1281;68818;-76
2022/09/29 11:14:37;;;;;;;;;;;;;;;17.46;100.00;97739.81;104424;1281;74409;-73
2022/09/29 11:17:19;;;;;;;;;;;;;;;17.63;100.00;97739.77;104543;1273;61471;-74
2022/09/29 11:19:46;;;;;;;;;;;;;;;17.80;100.00;97737.48;104947;1272;61185;-73
2022/09/29 11:22:13;;;;;;;;;;;;;;;17.89;100.00;97736.02;104882;1273;75478;-73
2022/09/29 11:24:49;;;;;;;;;;;;;;;17.92;100.00;97738.69;104901;1272;61411;-74
2022/09/29 11:27:34;;;;;;;;;;;;;;;18.04;100.00;97733.55;104982;1273;72832;-73
2022/09/29 11:30:34;;;;;;;;;;;;;;;18.02;100.00;97728.98;104910;1273;61244;-74
2022/09/29 11:33:07;;;;;;;;;;;;;;;18.09;100.00;97728.61;104687;1279;61237;-74
2022/09/29 11:35:33;;;;;;;;;;;;;;;18.18;100.00;97724.12;104521;1278;75203;-74
2022/09/29 11:38:02;;;;;;;;;;;;;;;18.17;100.00;97725.80;104662;1278;61291;-74
2022/09/29 11:40:46;;;;;;;;;;;;;;;18.22;100.00;97726.08;104669;1279;73618;-74
2022/09/29 11:43:30;;;;;;;;;;;;;;;18.22;100.00;97726.02;104647;1278;61470;-74
2022/09/29 11:46:15;;;;;;;;;;;;;;;18.17;100.00;97731.27;104618;1278;61903;-74
2022/09/29 11:48:44;;;;;;;;;;;;;;;18.18;100.00;97730.47;104627;1278;76269;-74
2022/09/29 11:51:20;;;;;;;;;;;;;;;18.26;100.00;97729.92;104680;1278;69796;-73
2022/09/29 11:53:58;;;;;;;;;;;;;;;18.27;100.00;97731.44;104672;1278;74038;-73
2022/09/29 11:56:32;;;;;;;;;;;;;;;18.36;100.00;97729.72;104635;1279;61252;-73
2022/09/29 11:59:08;;;;;;;;;;;;;;;18.43;100.00;97725.14;104633;1278;61243;-73
2022/09/29 12:01:43;;;;;;;;;;;;;;;18.40;100.00;97731.37;104511;1278;73670;-74
2022/09/29 12:04:27;;;;;;;;;;;;;;;18.43;100.00;97728.79;104762;1278;70267;-76
2022/09/29 12:07:04;;;;;;;;;;;;;;;18.58;100.00;97720.67;104821;1278;72652;-76
2022/09/29 12:09:39;;;;;;;;;;;;;;;18.68;100.00;97724.52;105142;1273;61305;-74
2022/09/29 12:12:06;;;;;;;;;;;;;;;18.82;100.00;97730.23;105043;1273;61373;-73
2022/09/29 12:14:40;;;;;;;;;;;;;;;18.85;100.00;97731.23;105014;1273;61290;-74
2022/09/29 12:17:10;;;;;;;;;;;;;;;18.81;100.00;97733.00;105140;1272;70455;-74
2022/09/29 12:19:40;;;;;;;;;;;;;;;18.81;100.00;97727.64;105151;1272;74349;-75
2022/09/29 12:22:08;;;;;;;;;;;;;;;18.77;100.00;97730.85;105371;1272;61364;-74
2022/09/29 12:24:36;;;;;;;;;;;;;;;18.69;100.00;97730.72;105128;1272;61499;-74
2022/09/29 12:27:06;;;;;;;;;;;;;;;18.45;100.00;97735.16;105074;1272;76425;-74
2022/09/29 12:29:37;;;;;;;;;;;;;;;17.99;100.00;97745.61;105108;1273;70335;-85
2022/09/29 12:32:08;;;;;;;;;;;;;;;17.63;100.00;97743.75;105439;1273;73970;-81
2022/09/29 12:34:34;;;;;;;;;;;;;;;17.46;100.00;97745.46;105407;1274;61287;-82
2022/09/29 12:37:09;;;;;;;;;;;;;;;17.33;100.00;97749.14;105494;1272;61257;-84
2022/09/29 12:39:44;;;;;;;;;;;;;;;17.09;100.00;97747.90;105594;1274;76365;-85
2022/09/29 12:42:22;;;;;;;;;;;;;;;16.93;100.00;97750.55;105517;1273;69572;-75
2022/09/29 12:44:56;;;;;;;;;;;;;;;16.86;100.00;97750.58;104971;1273;75107;-71
2022/09/29 12:47:26;;;;;;;;;;;;;;;16.78;100.00;97745.85;104735;1273;61251;-70